createdAt,value
2023-03-26T00:00:23.124Z,99.2
2023-03-26T00:01:23.091Z,99.1
2023-03-26T00:02:23.587Z,99.1
2023-03-26T00:03:23.127Z,98.6
2023-03-26T00:04:23.124Z,98.0
2023-03-26T00:05:23.313Z,97.7
2023-03-26T00:06:23.140Z,97.4
2023-03-26T00:07:23.151Z,97.2
2023-03-26T00:08:23.165Z,97.1
2023-03-26T00:09:23.188Z,96.9
2023-03-26T00:10:23.190Z,96.7
2023-03-26T00:11:23.212Z,96.4
2023-03-26T00:12:23.211Z,96.6
2023-03-26T00:13:23.223Z,96.1
2023-03-26T00:14:23.229Z,96.0
2023-03-26T00:15:23.241Z,95.9
2023-03-26T00:16:23.364Z,95.6
2023-03-26T00:17:23.334Z,95.8
2023-03-26T00:18:23.296Z,96.0
2023-03-26T00:19:23.326Z,95.8
2023-03-26T00:20:23.301Z,95.6
2023-03-26T00:21:23.319Z,95.7
2023-03-26T00:22:23.335Z,95.6
2023-03-26T00:23:23.352Z,95.8
2023-03-26T00:24:23.359Z,95.6
2023-03-26T00:25:23.366Z,95.8
2023-03-26T00:26:23.389Z,95.8
2023-03-26T00:27:23.396Z,95.7
2023-03-26T00:28:23.424Z,95.6
2023-03-26T00:29:23.416Z,95.7
2023-03-26T00:30:23.434Z,95.8
2023-03-26T00:31:23.492Z,96.0
2023-03-26T00:32:23.439Z,95.9
2023-03-26T00:33:23.470Z,96.0
2023-03-26T00:34:23.480Z,96.0
2023-03-26T00:35:23.484Z,96.0
2023-03-26T00:36:23.582Z,96.0
2023-03-26T00:37:23.519Z,96.1
2023-03-26T00:38:23.544Z,96.0
2023-03-26T00:39:23.541Z,96.1
2023-03-26T00:40:23.598Z,96.1
2023-03-26T00:41:23.589Z,96.3
2023-03-26T00:42:23.593Z,96.3
2023-03-26T00:43:23.596Z,96.4
2023-03-26T01:01:24.264Z,99.4
2023-03-26T01:02:23.992Z,99.4
2023-03-26T01:03:28.555Z,99.5
2023-03-26T01:04:24.672Z,99.6
2023-03-26T01:05:24.038Z,99.6
2023-03-26T01:06:23.859Z,99.0
2023-03-26T01:07:23.865Z,99.0
2023-03-26T01:08:24.147Z,98.8
2023-03-26T01:09:23.955Z,98.7
2023-03-26T01:10:23.907Z,98.5
2023-03-26T01:11:23.982Z,98.6
2023-03-26T01:12:23.969Z,98.4
2023-03-26T01:13:23.995Z,98.2
2023-03-26T01:14:24.133Z,98.2
2023-03-26T01:15:23.999Z,98.2
2023-03-26T01:16:24.137Z,98.3
2023-03-26T01:17:24.298Z,98.2
2023-03-26T01:18:23.997Z,98.0
2023-03-26T01:19:24.003Z,97.9
2023-03-26T01:20:24.021Z,97.9
2023-03-26T01:21:24.048Z,98.0
2023-03-26T01:22:24.074Z,98.1
2023-03-26T01:23:24.066Z,98.4
2023-03-26T01:24:24.169Z,98.3
2023-03-26T01:25:24.106Z,98.3
2023-03-26T01:26:24.106Z,98.1
2023-03-26T01:27:24.143Z,97.9
2023-03-26T01:28:24.153Z,97.9
2023-03-26T01:29:24.173Z,98.0
2023-03-26T01:30:24.200Z,98.0
2023-03-26T01:31:24.191Z,98.2
2023-03-26T01:32:24.561Z,98.3
2023-03-26T01:33:24.474Z,98.0
2023-03-26T01:34:24.241Z,98.0
2023-03-26T01:35:24.407Z,97.9
2023-03-26T01:36:24.254Z,98.0
2023-03-26T01:37:24.265Z,98.0
2023-03-26T01:38:24.292Z,98.0
2023-03-26T01:39:24.292Z,97.9
2023-03-26T01:40:24.350Z,97.7
2023-03-26T01:41:24.319Z,97.4
2023-03-26T01:42:24.322Z,97.3
2023-03-26T01:43:24.378Z,96.9
2023-03-26T01:44:24.357Z,97.0
2023-03-26T01:45:24.379Z,96.8
2023-03-26T01:46:24.424Z,97.0
2023-03-26T01:47:24.438Z,97.4
2023-03-26T01:48:24.394Z,97.7
2023-03-26T01:49:24.404Z,97.6
2023-03-26T01:50:24.395Z,97.6
2023-03-26T01:51:24.416Z,97.6
2023-03-26T01:52:24.415Z,97.4
2023-03-26T01:53:24.427Z,97.0
2023-03-26T01:54:24.434Z,96.7
2023-03-26T01:55:24.458Z,96.3
2023-03-26T01:56:24.448Z,95.8
2023-03-26T01:57:24.461Z,96.0
2023-03-26T01:58:24.484Z,95.7
2023-03-26T01:59:24.482Z,96.0
2023-03-26T02:00:24.529Z,96.3
2023-03-26T02:01:24.872Z,96.3
2023-03-26T02:02:24.971Z,96.4
2023-03-26T02:03:24.962Z,96.3
2023-03-26T02:04:24.522Z,96.4
2023-03-26T02:05:24.531Z,96.6
2023-03-26T02:06:24.513Z,96.7
2023-03-26T02:07:24.534Z,97.0
2023-03-26T02:08:24.541Z,96.6
2023-03-26T02:09:24.544Z,96.8
2023-03-26T02:10:24.563Z,96.8
2023-03-26T02:11:36.305Z,96.8
2023-03-26T02:12:24.571Z,97.1
2023-03-26T02:13:24.584Z,97.0
2023-03-26T02:14:24.581Z,96.8
2023-03-26T02:15:24.599Z,96.9
2023-03-26T02:16:24.803Z,96.9
2023-03-26T02:17:24.932Z,97.0
2023-03-26T02:18:24.616Z,97.0
2023-03-26T02:19:24.702Z,97.2
2023-03-26T02:20:24.621Z,97.4
2023-03-26T02:21:24.635Z,97.4
2023-03-26T02:22:24.635Z,97.3
2023-03-26T02:23:24.664Z,97.5
2023-03-26T02:24:24.659Z,97.3
2023-03-26T02:25:24.696Z,97.4
2023-03-26T02:26:24.673Z,97.6
2023-03-26T02:27:24.679Z,97.8
2023-03-26T02:28:24.721Z,97.9
2023-03-26T02:29:24.703Z,98.1
2023-03-26T02:30:24.722Z,98.0
2023-03-26T02:31:24.902Z,97.9
2023-03-26T02:32:29.220Z,98.1
2023-03-26T02:33:24.751Z,98.1
2023-03-26T02:34:24.727Z,98.0
2023-03-26T02:35:25.053Z,98.0
2023-03-26T02:36:25.107Z,97.9
2023-03-26T02:37:24.767Z,97.8
2023-03-26T02:38:24.765Z,97.8
2023-03-26T02:39:24.792Z,97.9
2023-03-26T02:40:24.828Z,98.1
2023-03-26T02:41:24.862Z,98.2
2023-03-26T02:42:24.835Z,98.4
2023-03-26T02:43:24.823Z,98.4
2023-03-26T02:44:24.841Z,98.5
2023-03-26T02:45:24.844Z,98.6
2023-03-26T02:46:24.986Z,98.6
2023-03-26T02:47:24.974Z,98.5
2023-03-26T02:48:24.887Z,98.6
2023-03-26T02:49:25.082Z,98.5
2023-03-26T02:50:24.862Z,98.4
2023-03-26T02:51:24.891Z,98.3
2023-03-26T02:52:24.894Z,98.2
2023-03-26T02:53:24.902Z,97.9
2023-03-26T02:54:24.899Z,97.7
2023-03-26T02:55:24.930Z,97.8
2023-03-26T02:56:24.928Z,97.9
2023-03-26T02:57:24.926Z,98.0
2023-03-26T02:58:24.934Z,97.6
2023-03-26T02:59:24.951Z,97.5
2023-03-26T03:00:24.947Z,97.4
2023-03-26T03:01:25.152Z,96.9
2023-03-26T03:02:25.237Z,96.6
2023-03-26T03:03:25.068Z,96.4
2023-03-26T03:04:24.979Z,96.2
2023-03-26T03:05:24.980Z,96.4
2023-03-26T03:06:24.998Z,96.6
2023-03-26T03:07:24.989Z,96.8
2023-03-26T03:08:25.028Z,96.5
2023-03-26T03:09:25.030Z,96.1
2023-03-26T03:10:25.001Z,96.4
2023-03-26T03:11:25.308Z,96.5
2023-03-26T03:12:25.019Z,96.6
2023-03-26T03:13:25.036Z,96.6
2023-03-26T03:14:25.035Z,96.8
2023-03-26T03:15:25.039Z,96.4
2023-03-26T03:16:25.219Z,96.5
2023-03-26T03:17:25.206Z,96.6
2023-03-26T03:18:25.168Z,96.6
2023-03-26T03:19:25.054Z,96.7
2023-03-26T03:20:25.072Z,97.0
2023-03-26T03:21:25.078Z,97.2
2023-03-26T03:22:25.097Z,97.1
2023-03-26T03:23:25.121Z,97.3
2023-03-26T03:24:25.155Z,97.2
2023-03-26T03:25:25.108Z,97.3
2023-03-26T03:26:25.118Z,97.2
2023-03-26T03:27:25.125Z,97.0
2023-03-26T03:28:25.119Z,96.4
2023-03-26T03:29:25.135Z,96.3
2023-03-26T03:30:25.141Z,96.4
2023-03-26T03:31:25.314Z,96.0
2023-03-26T03:32:25.266Z,96.0
2023-03-26T03:33:25.176Z,96.2
2023-03-26T03:34:25.187Z,96.4
2023-03-26T03:35:25.298Z,96.3
2023-03-26T03:36:25.189Z,96.1
2023-03-26T03:37:25.201Z,96.0
2023-03-26T03:38:25.206Z,96.1
2023-03-26T03:39:25.204Z,96.2
2023-03-26T03:40:25.237Z,96.0
2023-03-26T03:41:25.211Z,96.2
2023-03-26T03:42:25.228Z,96.4
2023-03-26T03:43:25.237Z,96.6
2023-03-26T03:44:25.266Z,96.2
2023-03-26T03:45:25.240Z,96.2
2023-03-26T03:46:25.426Z,96.2
2023-03-26T03:47:25.416Z,96.2
2023-03-26T03:48:25.326Z,96.3
2023-03-26T03:49:25.289Z,96.2
2023-03-26T03:50:25.312Z,96.0
2023-03-26T03:51:25.291Z,95.7
2023-03-26T03:52:25.300Z,95.6
2023-03-26T03:53:25.301Z,95.4
2023-03-26T03:54:25.313Z,95.4
2023-03-26T03:55:25.320Z,95.3
2023-03-26T03:56:25.330Z,95.3
2023-03-26T03:57:25.318Z,95.4
2023-03-26T03:58:25.346Z,95.4
2023-03-26T03:59:25.354Z,95.5
2023-03-26T04:00:25.369Z,95.6
2023-03-26T04:01:25.382Z,95.6
2023-03-26T04:02:25.630Z,95.7
2023-03-26T04:03:34.968Z,95.7
2023-03-26T04:04:25.459Z,95.3
2023-03-26T04:05:25.373Z,95.3
2023-03-26T04:06:25.427Z,95.3
2023-03-26T04:07:25.376Z,95.5
2023-03-26T04:08:25.406Z,95.3
2023-03-26T04:09:25.413Z,95.5
2023-03-26T04:10:25.420Z,95.3
2023-03-26T04:11:25.466Z,95.0
2023-03-26T04:12:25.431Z,95.2
2023-03-26T04:13:25.434Z,95.2
2023-03-26T04:14:25.451Z,95.2
2023-03-26T04:15:25.449Z,94.8
2023-03-26T04:16:25.652Z,94.5
2023-03-26T04:17:25.594Z,94.5
2023-03-26T04:18:25.474Z,94.3
2023-03-26T04:19:25.482Z,93.9
2023-03-26T04:20:25.510Z,93.9
2023-03-26T04:21:25.497Z,93.9
2023-03-26T04:22:25.496Z,94.1
2023-03-26T04:23:25.505Z,94.4
2023-03-26T04:24:25.513Z,94.4
2023-03-26T04:25:25.520Z,94.5
2023-03-26T04:26:25.520Z,94.4
2023-03-26T04:27:25.611Z,94.5
2023-03-26T04:28:25.547Z,94.5
2023-03-26T04:29:25.557Z,94.4
2023-03-26T04:30:25.607Z,94.5
2023-03-26T04:31:25.626Z,94.4
2023-03-26T04:32:25.645Z,94.5
2023-03-26T04:33:25.585Z,94.4
2023-03-26T04:34:25.618Z,94.3
2023-03-26T04:35:25.689Z,94.4
2023-03-26T04:36:25.602Z,94.3
2023-03-26T04:37:25.607Z,94.1
2023-03-26T04:38:25.609Z,94.3
2023-03-26T04:39:25.618Z,94.4
2023-03-26T04:40:25.633Z,93.5
2023-03-26T04:41:25.618Z,93.6
2023-03-26T04:42:25.644Z,93.4
2023-03-26T04:43:25.645Z,92.9
2023-03-26T04:44:25.650Z,92.3
2023-03-26T04:45:25.657Z,92.3
2023-03-26T04:46:25.759Z,92.4
2023-03-26T04:47:25.728Z,92.5
2023-03-26T04:48:25.676Z,92.3
2023-03-26T04:49:25.673Z,91.4
2023-03-26T04:50:25.682Z,91.3
2023-03-26T04:51:25.906Z,90.7
2023-03-26T04:52:25.719Z,90.4
2023-03-26T04:53:25.716Z,90.7
2023-03-26T04:54:25.721Z,90.4
2023-03-26T04:55:25.784Z,90.2
2023-03-26T04:56:25.753Z,90.5
2023-03-26T04:57:25.804Z,90.6
2023-03-26T04:58:25.753Z,90.8
2023-03-26T04:59:25.754Z,90.9
2023-03-26T05:00:25.766Z,91.5
2023-03-26T05:01:25.900Z,92.3
2023-03-26T05:02:25.877Z,93.0
2023-03-26T05:03:25.831Z,92.9
2023-03-26T05:04:25.980Z,93.3
2023-03-26T05:05:25.808Z,93.4
2023-03-26T05:06:25.815Z,93.5
2023-03-26T05:07:25.825Z,93.5
2023-03-26T05:08:25.852Z,93.6
2023-03-26T05:09:25.856Z,93.5
2023-03-26T05:10:25.860Z,93.8
2023-03-26T05:11:25.841Z,94.0
2023-03-26T05:12:25.861Z,93.8
2023-03-26T05:13:25.877Z,94.0
2023-03-26T05:14:25.872Z,94.1
2023-03-26T05:15:25.889Z,94.2
2023-03-26T05:16:26.163Z,94.2
2023-03-26T05:17:26.063Z,94.3
2023-03-26T05:18:25.895Z,94.5
2023-03-26T05:19:25.910Z,94.5
2023-03-26T05:20:25.905Z,94.8
2023-03-26T05:21:25.942Z,95.0
2023-03-26T05:22:25.945Z,95.0
2023-03-26T05:23:25.939Z,94.9
2023-03-26T05:24:25.936Z,95.1
2023-03-26T05:25:25.943Z,95.2
2023-03-26T05:26:25.960Z,95.2
2023-03-26T05:27:25.980Z,94.7
2023-03-26T05:28:25.972Z,94.5
2023-03-26T05:29:25.969Z,94.5
2023-03-26T05:30:25.994Z,94.6
2023-03-26T05:31:25.986Z,94.6
2023-03-26T05:32:26.060Z,94.4
2023-03-26T05:33:26.273Z,94.4
2023-03-26T05:34:26.005Z,94.4
2023-03-26T05:35:26.218Z,94.4
2023-03-26T05:36:26.066Z,94.2
2023-03-26T05:37:26.057Z,93.5
2023-03-26T05:38:26.052Z,93.0
2023-03-26T05:39:26.166Z,93.2
2023-03-26T05:40:26.076Z,92.9
2023-03-26T05:41:26.067Z,93.0
2023-03-26T05:42:26.088Z,92.7
2023-03-26T05:43:26.074Z,92.8
2023-03-26T05:44:26.083Z,92.7
2023-03-26T05:45:26.084Z,92.7
2023-03-26T05:46:26.227Z,92.4
2023-03-26T05:47:26.189Z,92.5
2023-03-26T05:48:26.097Z,92.0
2023-03-26T05:49:26.185Z,92.1
2023-03-26T05:50:26.115Z,91.9
2023-03-26T05:51:26.114Z,92.0
2023-03-26T05:52:26.142Z,92.1
2023-03-26T05:53:26.149Z,91.9
2023-03-26T05:54:26.142Z,91.9
2023-03-26T05:55:26.141Z,92.1
2023-03-26T05:56:26.148Z,91.4
2023-03-26T05:57:26.155Z,90.5
2023-03-26T05:58:26.193Z,91.1
2023-03-26T05:59:26.177Z,91.3
2023-03-26T06:00:26.187Z,91.4
2023-03-26T06:01:26.193Z,91.1
2023-03-26T06:02:26.295Z,91.2
2023-03-26T06:03:26.619Z,90.8
2023-03-26T06:04:26.442Z,90.9
2023-03-26T06:05:26.224Z,91.4
2023-03-26T06:06:26.216Z,91.4
2023-03-26T06:07:26.214Z,91.3
2023-03-26T06:08:26.226Z,91.3
2023-03-26T06:09:26.238Z,91.5
2023-03-26T06:10:26.243Z,91.1
2023-03-26T06:11:26.399Z,90.6
2023-03-26T06:12:26.259Z,90.9
2023-03-26T06:13:26.286Z,90.5
2023-03-26T06:14:26.276Z,90.8
2023-03-26T06:15:26.269Z,90.4
2023-03-26T06:16:28.808Z,90.4
2023-03-26T06:17:26.306Z,90.4
2023-03-26T06:18:26.452Z,89.9
2023-03-26T06:19:26.316Z,90.1
2023-03-26T06:20:26.375Z,90.4
2023-03-26T06:21:26.368Z,90.4
2023-03-26T06:22:26.374Z,90.2
2023-03-26T06:23:26.344Z,89.5
2023-03-26T06:24:26.348Z,89.8
2023-03-26T06:25:26.352Z,89.9
2023-03-26T06:26:26.374Z,90.0
2023-03-26T06:27:26.376Z,89.6
2023-03-26T06:28:26.394Z,89.1
2023-03-26T06:29:26.397Z,88.7
2023-03-26T06:30:26.614Z,89.0
2023-03-26T06:31:26.489Z,88.5
2023-03-26T06:32:26.483Z,88.5
2023-03-26T06:33:26.432Z,88.3
2023-03-26T06:34:26.439Z,88.4
2023-03-26T06:35:26.473Z,87.8
2023-03-26T06:36:26.471Z,88.0
2023-03-26T06:37:26.477Z,88.1
2023-03-26T06:38:26.494Z,87.3
2023-03-26T06:39:26.477Z,87.6
2023-03-26T06:40:26.506Z,87.1
2023-03-26T06:41:26.525Z,87.5
2023-03-26T06:43:08.390Z,87.0
2023-03-26T06:43:26.521Z,87.3
2023-03-26T06:44:26.529Z,86.2
2023-03-26T06:45:26.529Z,85.9
2023-03-26T06:46:26.754Z,85.1
2023-03-26T06:47:26.706Z,83.8
2023-03-26T06:48:26.559Z,84.1
2023-03-26T06:49:26.567Z,84.5
2023-03-26T06:50:26.595Z,84.3
2023-03-26T06:51:26.585Z,84.0
2023-03-26T06:52:26.590Z,83.9
2023-03-26T06:53:26.620Z,84.2
2023-03-26T06:54:26.618Z,83.7
2023-03-26T06:55:26.637Z,83.4
2023-03-26T06:56:26.631Z,82.6
2023-03-26T06:57:26.634Z,82.6
2023-03-26T06:58:26.640Z,82.3
2023-03-26T06:59:26.699Z,83.0
2023-03-26T07:00:26.676Z,82.5
2023-03-26T07:01:26.883Z,82.6
2023-03-26T07:02:26.812Z,81.1
2023-03-26T07:03:26.737Z,81.5
2023-03-26T07:04:26.871Z,82.0
2023-03-26T07:05:26.696Z,81.7
2023-03-26T07:06:26.724Z,81.9
2023-03-26T07:07:26.718Z,80.4
2023-03-26T07:08:26.746Z,80.0
2023-03-26T07:09:26.719Z,79.9
2023-03-26T07:10:26.739Z,80.5
2023-03-26T07:11:26.743Z,77.8
2023-03-26T07:12:26.762Z,77.5
2023-03-26T07:13:26.772Z,78.3
2023-03-26T07:14:26.767Z,75.6
2023-03-26T07:15:26.783Z,75.8
2023-03-26T07:16:26.950Z,74.5
2023-03-26T07:17:26.846Z,75.3
2023-03-26T07:18:26.790Z,77.2
2023-03-26T07:19:26.784Z,75.6
2023-03-26T07:20:26.845Z,75.1
2023-03-26T07:21:26.810Z,75.0
2023-03-26T07:22:26.827Z,74.9
2023-03-26T07:23:26.839Z,73.2
2023-03-26T07:24:26.847Z,73.1
2023-03-26T07:25:26.824Z,71.3
2023-03-26T07:26:26.872Z,72.1
2023-03-26T07:27:26.841Z,71.2
2023-03-26T07:28:26.891Z,70.8
2023-03-26T07:29:26.859Z,70.8
2023-03-26T07:30:26.889Z,70.0
2023-03-26T07:31:27.031Z,70.5
2023-03-26T07:32:26.977Z,70.5
2023-03-26T07:33:26.964Z,71.0
2023-03-26T07:34:26.991Z,70.6
2023-03-26T07:35:26.977Z,68.6
2023-03-26T07:36:26.989Z,67.8
2023-03-26T07:37:26.953Z,68.5
2023-03-26T07:38:26.975Z,67.1
2023-03-26T07:39:28.270Z,67.8
2023-03-26T07:40:27.019Z,68.0
2023-03-26T07:41:27.012Z,68.3
2023-03-26T07:42:26.971Z,67.1
2023-03-26T07:43:27.141Z,67.8
2023-03-26T07:44:27.119Z,67.1
2023-03-26T07:45:27.075Z,65.4
2023-03-26T07:46:27.021Z,65.7
2023-03-26T07:47:27.113Z,64.4
2023-03-26T07:48:27.059Z,64.4
2023-03-26T07:49:27.454Z,64.2
2023-03-26T07:50:27.041Z,64.4
2023-03-26T07:51:27.073Z,64.7
2023-03-26T07:52:27.039Z,64.5
2023-03-26T07:53:27.024Z,63.9
2023-03-26T07:54:27.063Z,64.2
2023-03-26T07:55:27.058Z,64.5
2023-03-26T07:56:27.130Z,64.7
2023-03-26T07:57:27.238Z,64.1
2023-03-26T07:58:27.084Z,63.2
2023-03-26T07:59:27.103Z,63.2
2023-03-26T08:00:27.076Z,64.0
2023-03-26T08:01:27.124Z,63.5
2023-03-26T08:02:27.216Z,63.5
2023-03-26T08:03:27.992Z,62.7
2023-03-26T08:04:27.649Z,62.2
2023-03-26T08:05:27.132Z,62.8
2023-03-26T08:06:27.152Z,63.3
2023-03-26T08:07:27.127Z,63.9
2023-03-26T08:08:27.155Z,62.5
2023-03-26T08:09:27.134Z,62.0
2023-03-26T08:10:27.201Z,61.8
2023-03-26T08:11:27.164Z,62.3
2023-03-26T08:12:27.174Z,62.9
2023-03-26T08:13:27.161Z,63.6
2023-03-26T08:14:27.170Z,62.3
2023-03-26T08:15:27.305Z,63.6
2023-03-26T08:16:27.198Z,63.6
2023-03-26T08:17:31.471Z,60.9
2023-03-26T08:18:27.577Z,61.2
2023-03-26T08:19:27.232Z,60.8
2023-03-26T08:20:27.216Z,61.4
2023-03-26T08:21:27.278Z,62.0
2023-03-26T08:22:27.278Z,61.5
2023-03-26T08:23:27.296Z,62.1
2023-03-26T08:24:27.268Z,61.6
2023-03-26T08:25:27.272Z,61.0
2023-03-26T08:26:27.275Z,60.5
2023-03-26T08:27:27.360Z,61.1
2023-03-26T08:28:27.477Z,59.5
2023-03-26T08:29:27.483Z,58.7
2023-03-26T08:30:27.324Z,59.7
2023-03-26T08:31:27.436Z,60.2
2023-03-26T08:32:27.395Z,59.9
2023-03-26T08:33:27.362Z,60.2
2023-03-26T08:34:27.371Z,60.0
2023-03-26T08:35:27.532Z,60.1
2023-03-26T08:36:27.373Z,60.1
2023-03-26T08:37:27.590Z,59.5
2023-03-26T08:38:27.378Z,59.7
2023-03-26T08:39:27.382Z,59.3
2023-03-26T08:40:27.389Z,58.4
2023-03-26T08:41:27.394Z,59.0
2023-03-26T08:42:27.422Z,59.5
2023-03-26T08:43:27.422Z,59.7
2023-03-26T08:44:27.412Z,58.5
2023-03-26T08:45:27.431Z,59.0
2023-03-26T08:46:27.587Z,58.6
2023-03-26T08:47:27.566Z,59.6
2023-03-26T08:48:27.454Z,59.4
2023-03-26T08:49:29.947Z,59.7
2023-03-26T08:50:27.486Z,59.2
2023-03-26T08:51:27.496Z,59.6
2023-03-26T08:52:27.503Z,60.5
2023-03-26T08:53:27.498Z,61.2
2023-03-26T08:54:27.496Z,60.6
2023-03-26T08:55:27.508Z,59.4
2023-03-26T08:56:27.531Z,59.7
2023-03-26T08:57:27.528Z,59.3
2023-03-26T08:58:27.522Z,59.1
2023-03-26T08:59:27.539Z,60.0
2023-03-26T09:00:27.553Z,59.4
2023-03-26T09:01:27.639Z,59.4
2023-03-26T09:02:27.679Z,59.5
2023-03-26T09:03:27.667Z,59.5
2023-03-26T09:04:27.582Z,59.8
2023-03-26T09:05:27.570Z,60.2
2023-03-26T09:06:27.593Z,60.3
2023-03-26T09:07:27.605Z,60.4
2023-03-26T09:08:30.589Z,60.0
2023-03-26T09:09:27.611Z,60.0
2023-03-26T09:10:27.624Z,60.0
2023-03-26T09:11:27.626Z,59.4
2023-03-26T09:12:27.625Z,59.8
2023-03-26T09:13:27.640Z,59.5
2023-03-26T09:14:27.673Z,58.1
2023-03-26T09:15:27.642Z,56.6
2023-03-26T09:16:27.835Z,57.0
2023-03-26T09:17:27.877Z,57.4
2023-03-26T09:18:27.677Z,56.7
2023-03-26T09:19:27.676Z,56.5
2023-03-26T09:20:27.713Z,57.2
2023-03-26T09:21:27.707Z,57.4
2023-03-26T09:22:27.710Z,55.9
2023-03-26T09:23:27.710Z,55.5
2023-03-26T09:24:27.964Z,56.5
2023-03-26T09:25:27.725Z,57.0
2023-03-26T09:26:27.770Z,56.2
2023-03-26T09:27:27.777Z,57.3
2023-03-26T09:28:27.755Z,57.7
2023-03-26T09:29:27.751Z,57.4
2023-03-26T09:30:27.760Z,56.2
2023-03-26T09:31:27.909Z,56.9
2023-03-26T09:32:27.941Z,57.6
2023-03-26T09:33:27.782Z,57.5
2023-03-26T09:34:27.789Z,57.6
2023-03-26T09:35:27.939Z,56.0
2023-03-26T09:36:27.816Z,56.5
2023-03-26T09:37:27.814Z,56.5
2023-03-26T09:38:27.855Z,55.9
2023-03-26T09:39:27.834Z,55.5
2023-03-26T09:40:27.831Z,55.9
2023-03-26T09:41:27.862Z,55.5
2023-03-26T09:42:27.862Z,55.9
2023-03-26T09:43:27.863Z,55.3
2023-03-26T09:44:27.876Z,55.9
2023-03-26T09:45:28.014Z,55.6
2023-03-26T09:46:27.884Z,55.9
2023-03-26T09:47:28.051Z,55.9
2023-03-26T09:48:27.902Z,55.5
2023-03-26T09:49:27.950Z,55.0
2023-03-26T09:50:27.913Z,54.7
2023-03-26T09:51:27.933Z,55.0
2023-03-26T09:52:27.932Z,54.9
2023-03-26T09:53:27.946Z,55.5
2023-03-26T09:54:27.952Z,55.3
2023-03-26T09:55:27.955Z,55.1
2023-03-26T09:56:27.986Z,54.1
2023-03-26T09:57:28.128Z,53.9
2023-03-26T09:58:27.973Z,53.2
2023-03-26T09:59:28.019Z,54.2
2023-03-26T10:00:27.999Z,53.4
2023-03-26T10:01:28.121Z,52.9
2023-03-26T10:02:47.700Z,53.1
2023-03-26T10:03:28.276Z,54.0
2023-03-26T10:04:28.178Z,54.3
2023-03-26T10:05:28.062Z,53.6
2023-03-26T10:06:28.087Z,54.2
2023-03-26T10:07:28.063Z,53.9
2023-03-26T10:08:32.567Z,54.4
2023-03-26T10:09:28.106Z,55.1
2023-03-26T10:10:28.108Z,55.8
2023-03-26T10:11:28.098Z,56.6
2023-03-26T10:12:28.107Z,56.0
2023-03-26T10:13:28.119Z,55.8
2023-03-26T10:14:28.121Z,55.0
2023-03-26T10:15:28.143Z,55.4
2023-03-26T10:16:28.285Z,54.8
2023-03-26T10:17:28.219Z,53.7
2023-03-26T10:18:30.419Z,53.4
2023-03-26T10:19:28.148Z,53.1
2023-03-26T10:20:28.156Z,51.7
2023-03-26T10:21:28.783Z,51.8
2023-03-26T10:22:28.264Z,52.8
2023-03-26T10:23:28.190Z,52.6
2023-03-26T10:24:28.192Z,53.0
2023-03-26T10:25:28.207Z,53.7
2023-03-26T10:26:28.206Z,53.9
2023-03-26T10:27:28.261Z,53.7
2023-03-26T10:28:28.217Z,53.5
2023-03-26T10:29:28.508Z,52.4
2023-03-26T10:30:28.357Z,51.8
2023-03-26T10:31:28.658Z,53.2
2023-03-26T10:32:28.340Z,52.9
2023-03-26T10:33:28.267Z,53.3
2023-03-26T10:34:29.987Z,52.9
2023-03-26T10:35:28.326Z,53.0
2023-03-26T10:36:28.293Z,52.3
2023-03-26T10:37:28.295Z,52.9
2023-03-26T10:38:28.304Z,52.6
2023-03-26T10:39:41.143Z,51.9
2023-03-26T10:40:28.336Z,52.5
2023-03-26T10:41:28.325Z,51.8
2023-03-26T10:42:28.328Z,52.0
2023-03-26T10:43:28.396Z,52.2
2023-03-26T10:44:28.359Z,51.8
2023-03-26T10:45:28.562Z,52.6
2023-03-26T10:46:28.529Z,52.3
2023-03-26T10:47:28.494Z,52.7
2023-03-26T10:48:28.379Z,53.2
2023-03-26T10:49:28.420Z,53.5
2023-03-26T10:50:28.408Z,54.0
2023-03-26T10:51:28.409Z,53.6
2023-03-26T10:52:28.420Z,53.5
2023-03-26T10:53:28.433Z,53.6
2023-03-26T10:54:28.423Z,53.3
2023-03-26T10:55:28.628Z,53.0
2023-03-26T10:56:28.455Z,52.0
2023-03-26T10:57:28.477Z,51.8
2023-03-26T10:58:28.467Z,52.3
2023-03-26T10:59:28.458Z,52.6
2023-03-26T11:00:28.529Z,52.4
2023-03-26T11:01:28.700Z,52.3
2023-03-26T11:02:31.097Z,50.7
2023-03-26T11:03:28.531Z,51.0
2023-03-26T11:04:28.524Z,49.2
2023-03-26T11:05:28.996Z,49.3
2023-03-26T11:06:28.533Z,49.6
2023-03-26T11:07:28.551Z,50.2
2023-03-26T11:08:32.991Z,50.6
2023-03-26T11:09:28.574Z,50.1
2023-03-26T11:10:28.559Z,50.6
2023-03-26T11:11:28.566Z,50.8
2023-03-26T11:12:28.904Z,50.8
2023-03-26T11:13:28.665Z,50.9
2023-03-26T11:14:35.723Z,49.5
2023-03-26T11:15:28.770Z,48.7
2023-03-26T11:16:28.632Z,49.1
2023-03-26T11:17:41.502Z,49.4
2023-03-26T11:18:28.857Z,49.3
2023-03-26T11:19:28.663Z,50.3
2023-03-26T11:20:28.680Z,50.1
2023-03-26T11:21:28.679Z,50.0
2023-03-26T11:22:28.686Z,50.6
2023-03-26T11:23:28.678Z,50.8
2023-03-26T11:24:28.708Z,50.8
2023-03-26T11:25:28.690Z,49.7
2023-03-26T11:26:28.711Z,49.7
2023-03-26T11:27:28.716Z,50.0
2023-03-26T11:28:28.731Z,49.2
2023-03-26T11:29:33.774Z,49.2
2023-03-26T11:30:28.761Z,49.6
2023-03-26T11:31:28.979Z,49.8
2023-03-26T11:32:28.950Z,48.3
2023-03-26T11:33:33.141Z,49.3
2023-03-26T11:34:28.784Z,50.5
2023-03-26T11:35:41.796Z,50.7
2023-03-26T11:36:28.906Z,50.5
2023-03-26T11:37:28.786Z,50.6
2023-03-26T11:38:28.839Z,50.7
2023-03-26T11:39:28.808Z,51.2
2023-03-26T11:40:28.807Z,51.5
2023-03-26T11:41:28.849Z,52.1
2023-03-26T11:42:28.827Z,51.9
2023-03-26T11:43:28.841Z,52.3
2023-03-26T11:44:28.891Z,51.8
2023-03-26T11:45:28.854Z,50.8
2023-03-26T11:46:29.084Z,50.4
2023-03-26T11:47:28.984Z,51.3
2023-03-26T11:48:28.881Z,50.9
2023-03-26T11:49:28.887Z,50.9
2023-03-26T11:50:28.942Z,51.1
2023-03-26T11:51:28.915Z,50.3
2023-03-26T11:52:28.920Z,51.2
2023-03-26T11:53:28.947Z,50.8
2023-03-26T11:54:28.925Z,50.5
2023-03-26T11:55:28.952Z,50.4
2023-03-26T11:56:28.950Z,51.7
2023-03-26T11:57:29.132Z,51.9
2023-03-26T11:58:28.961Z,51.6
2023-03-26T11:59:28.966Z,52.7
2023-03-26T12:00:29.023Z,52.3
2023-03-26T12:01:28.973Z,51.3
2023-03-26T12:02:30.139Z,52.2
2023-03-26T12:03:28.982Z,52.6
2023-03-26T12:04:32.166Z,52.6
2023-03-26T12:05:29.033Z,52.2
2023-03-26T12:06:29.098Z,52.5
2023-03-26T12:07:29.028Z,52.5
2023-03-26T12:08:29.055Z,52.6
2023-03-26T12:09:29.037Z,52.6
2023-03-26T12:10:29.051Z,51.8
2023-03-26T12:11:29.133Z,52.2
2023-03-26T12:12:29.070Z,51.9
2023-03-26T12:13:29.074Z,52.1
2023-03-26T12:14:29.102Z,52.7
2023-03-26T12:15:29.122Z,52.7
2023-03-26T12:16:29.232Z,52.7
2023-03-26T12:17:32.302Z,52.5
2023-03-26T12:18:29.159Z,53.2
2023-03-26T12:19:29.216Z,53.4
2023-03-26T12:20:29.128Z,53.4
2023-03-26T12:21:29.149Z,53.7
2023-03-26T12:22:29.150Z,53.8
2023-03-26T12:23:29.172Z,53.0
2023-03-26T12:24:29.195Z,53.0
2023-03-26T12:25:29.183Z,53.7
2023-03-26T12:26:29.187Z,54.4
2023-03-26T12:27:29.190Z,53.7
2023-03-26T12:28:29.430Z,53.7
2023-03-26T12:29:29.351Z,53.1
2023-03-26T12:30:29.480Z,52.7
2023-03-26T12:31:29.611Z,52.0
2023-03-26T12:32:47.003Z,52.8
2023-03-26T12:33:29.799Z,52.1
2023-03-26T12:34:29.482Z,52.3
2023-03-26T12:35:29.798Z,52.7
2023-03-26T12:36:29.409Z,52.6
2023-03-26T12:37:29.590Z,52.6
2023-03-26T12:38:29.533Z,53.2
2023-03-26T12:40:08.287Z,53.5
2023-03-26T12:40:29.487Z,53.5
2023-03-26T12:42:36.834Z,53.4
2023-03-26T12:44:45.386Z,52.9
2023-03-26T12:44:52.527Z,54.3
2023-03-26T12:44:58.671Z,52.9
2023-03-26T12:45:29.529Z,51.3
2023-03-26T12:47:46.346Z,51.4
2023-03-26T12:47:56.784Z,51.9
2023-03-26T12:48:29.796Z,51.7
2023-03-26T12:49:29.625Z,51.6
2023-03-26T12:50:36.082Z,51.8
2023-03-26T12:51:29.624Z,51.7
2023-03-26T12:52:29.476Z,51.4
2023-03-26T12:53:29.585Z,51.3
2023-03-26T12:54:29.588Z,51.2
2023-03-26T12:55:29.606Z,51.1
2023-03-26T12:56:29.608Z,50.4
2023-03-26T12:57:29.757Z,51.5
2023-03-26T12:58:29.584Z,51.6
2023-03-26T12:59:29.671Z,51.6
2023-03-26T13:00:29.616Z,51.0
2023-03-26T13:01:29.962Z,50.9
2023-03-26T13:02:30.016Z,51.7
2023-03-26T13:03:29.890Z,50.8
2023-03-26T13:04:29.736Z,51.2
2023-03-26T13:05:29.806Z,51.2
2023-03-26T13:06:29.877Z,51.8
2023-03-26T13:07:29.725Z,52.2
2023-03-26T13:08:30.010Z,52.4
2023-03-26T13:09:29.562Z,52.6
2023-03-26T13:10:29.586Z,53.0
2023-03-26T13:11:29.604Z,53.2
2023-03-26T13:12:29.606Z,51.9
2023-03-26T13:13:29.600Z,50.9
2023-03-26T13:14:29.627Z,51.0
2023-03-26T13:15:29.624Z,50.8
2023-03-26T13:16:29.782Z,51.1
2023-03-26T13:17:29.756Z,51.9
2023-03-26T13:18:29.662Z,50.8
2023-03-26T13:19:29.709Z,50.5
2023-03-26T13:20:29.704Z,49.9
2023-03-26T13:21:29.705Z,50.3
2023-03-26T13:22:29.706Z,50.8
2023-03-26T13:23:29.747Z,51.4
2023-03-26T13:24:29.724Z,52.0
2023-03-26T13:25:29.746Z,51.8
2023-03-26T13:26:29.732Z,52.0
2023-03-26T13:27:29.742Z,51.2
2023-03-26T13:28:29.772Z,51.3
2023-03-26T13:29:29.760Z,51.6
2023-03-26T13:30:29.774Z,52.1
2023-03-26T13:31:30.033Z,50.9
2023-03-26T13:32:29.928Z,50.6
2023-03-26T13:33:29.817Z,50.7
2023-03-26T13:34:29.840Z,50.5
2023-03-26T13:35:30.283Z,50.2